Airfield :
LOGIN :

Register | Disclaimer

   EN    FR    IT 

 










Legend :    VFR   Marginal VFR   IFR   Intensive IFR   Very Intensive IFR
Visi :
Ceiling :
>= 8 km
>= 3000ft
5 to 8 km
1000 to 3000 ft
1500m to 5 km
500 to 1000 ft
800 to 1500m
200 to 500 ft
< 800m
< 200 ft
Symbols :   Thunderstorms  Fog  Heavy snow  Heavy precipitations  Wind > 20 kt
SIGMETs :     Misc.  Thunderstorms  Icing  Turbulence  Mountain Waves  Volcanic Ashes







- Airport Elevation : 266 ft
- IATA code : NCL
- Download approach charts


EGNT - Newcastle

CURRENT METAR :
  • 231950Z 07006KT 9999 BKN020 05/04 Q1029

EXPIRED METARs :
  • 231920Z 06006KT 9999 BKN020 05/04 Q1029
  • 231850Z 06008KT 9999 BKN024 05/04 Q1028
  • 231820Z 07008KT 9999 BKN020 05/04 Q1028
  • 231750Z 07008KT 9999 BKN020 06/04 Q1028
  • 231720Z 06010KT 9999 BKN012 06/04 Q1027

TAF AMD TAF EGNT
Valid from the 23 at 18:00 until the 24 at 18:00 UTC


231807Z 2318/2418 06010KT 9999 BKN020
PROB30
TEMPO 2318/2409 BKN008
BECMG 2400/2403 VRB03KT
ATIS : +44 191 214 3400
No reported NOTAMs for that airfield.



MET'MAP, your aeronautical weather chart ! - Copyright ORBIFLY December 2007 - Disclaimer

ORBIFLY MET'MAP TEAM :

Programming & Development : Alexandra Zaïnal
Concept & Development : Baudouin d'Aumeries
Co-Development & Prog : Marc-Olivier Méhu
Technical & hardware support : Manuel Goepfert

Contact : metmap@orbifly.com




SOURCES & CREDITS :

   NOAA